sensor_id;sensor_type;location;lat;lon;timestamp;P1;durP1;ratioP1;P2;durP2;ratioP2
65717;SDS011;52445;52.466;-1.016;2023-05-10T00:00:19;7.93;;;2.10;;
65717;SDS011;52445;52.466;-1.016;2023-05-10T00:02:46;3.17;;;1.50;;
65717;SDS011;52445;52.466;-1.016;2023-05-10T00:05:13;8.52;;;1.63;;
65717;SDS011;52445;52.466;-1.016;2023-05-10T00:07:42;3.28;;;1.25;;
65717;SDS011;52445;52.466;-1.016;2023-05-10T00:10:11;6.43;;;1.98;;
65717;SDS011;52445;52.466;-1.016;2023-05-10T00:12:38;4.63;;;1.52;;
65717;SDS011;52445;52.466;-1.016;2023-05-10T00:15:04;8.90;;;1.77;;
65717;SDS011;52445;52.466;-1.016;2023-05-10T00:17:32;5.70;;;1.60;;
65717;SDS011;52445;52.466;-1.016;2023-05-10T00:19:59;7.88;;;1.60;;
65717;SDS011;52445;52.466;-1.016;2023-05-10T00:22:25;8.07;;;1.92;;
65717;SDS011;52445;52.466;-1.016;2023-05-10T00:24:52;8.60;;;1.30;;
65717;SDS011;52445;52.466;-1.016;2023-05-10T00:27:18;6.93;;;1.67;;
65717;SDS011;52445;52.466;-1.016;2023-05-10T00:29:45;7.70;;;2.05;;
65717;SDS011;52445;52.466;-1.016;2023-05-10T00:32:11;4.50;;;1.30;;
65717;SDS011;52445;52.466;-1.016;2023-05-10T00:34:40;4.50;;;1.60;;
65717;SDS011;52445;52.466;-1.016;2023-05-10T00:37:06;6.32;;;1.65;;
65717;SDS011;52445;52.466;-1.016;2023-05-10T00:39:33;5.25;;;1.50;;
65717;SDS011;52445;52.466;-1.016;2023-05-10T00:42:00;5.53;;;1.35;;
65717;SDS011;52445;52.466;-1.016;2023-05-10T00:44:26;6.43;;;1.52;;
65717;SDS011;52445;52.466;-1.016;2023-05-10T00:46:53;6.45;;;1.40;;
65717;SDS011;52445;52.466;-1.016;2023-05-10T00:49:20;7.13;;;1.75;;
65717;SDS011;52445;52.466;-1.016;2023-05-10T00:51:47;7.88;;;1.35;;
65717;SDS011;52445;52.466;-1.016;2023-05-10T00:54:14;2.85;;;0.90;;
65717;SDS011;52445;52.466;-1.016;2023-05-10T00:56:42;7.20;;;1.70;;
65717;SDS011;52445;52.466;-1.016;2023-05-10T00:59:15;4.45;;;1.25;;
65717;SDS011;52445;52.466;-1.016;2023-05-10T01:01:44;9.45;;;1.40;;
65717;SDS011;52445;52.466;-1.016;2023-05-10T01:04:12;9.95;;;1.73;;
65717;SDS011;52445;52.466;-1.016;2023-05-10T01:06:41;6.80;;;1.83;;
65717;SDS011;52445;52.466;-1.016;2023-05-10T01:09:08;5.43;;;1.27;;
65717;SDS011;52445;52.466;-1.016;2023-05-10T01:11:36;7.25;;;1.55;;
65717;SDS011;52445;52.466;-1.016;2023-05-10T01:14:04;7.65;;;1.50;;
65717;SDS011;52445;52.466;-1.016;2023-05-10T01:16:32;5.10;;;1.35;;
65717;SDS011;52445;52.466;-1.016;2023-05-10T01:19:04;4.72;;;1.73;;
65717;SDS011;52445;52.466;-1.016;2023-05-10T01:21:38;4.88;;;1.35;;
65717;SDS011;52445;52.466;-1.016;2023-05-10T01:30:22;11.38;;;2.90;;
65717;SDS011;52445;52.466;-1.016;2023-05-10T01:33:09;5.53;;;1.63;;
65717;SDS011;52445;52.466;-1.016;2023-05-10T01:35:41;7.80;;;1.50;;
65717;SDS011;52445;52.466;-1.016;2023-05-10T01:38:22;5.15;;;1.15;;
65717;SDS011;52445;52.466;-1.016;2023-05-10T01:44:02;8.68;;;2.58;;
65717;SDS011;52445;52.466;-1.016;2023-05-10T01:46:37;6.88;;;2.80;;
65717;SDS011;52445;52.466;-1.016;2023-05-10T01:49:08;6.65;;;1.55;;
65717;SDS011;52445;52.466;-1.016;2023-05-10T01:51:39;6.45;;;2.38;;
65717;SDS011;52445;52.466;-1.016;2023-05-10T01:54:11;8.02;;;2.90;;
65717;SDS011;52445;52.466;-1.016;2023-05-10T01:56:39;6.88;;;2.70;;
65717;SDS011;52445;52.466;-1.016;2023-05-10T01:59:12;9.00;;;2.47;;
65717;SDS011;52445;52.466;-1.016;2023-05-10T02:01:43;4.93;;;2.50;;
65717;SDS011;52445;52.466;-1.016;2023-05-10T02:04:11;6.15;;;3.17;;
65717;SDS011;52445;52.466;-1.016;2023-05-10T02:09:10;8.98;;;2.80;;
65717;SDS011;52445;52.466;-1.016;2023-05-10T02:11:38;6.95;;;2.25;;
65717;SDS011;52445;52.466;-1.016;2023-05-10T02:14:07;9.27;;;1.67;;
65717;SDS011;52445;52.466;-1.016;2023-05-10T02:16:35;11.07;;;2.53;;
65717;SDS011;52445;52.466;-1.016;2023-05-10T02:19:04;6.75;;;2.58;;
65717;SDS011;52445;52.466;-1.016;2023-05-10T02:21:32;7.30;;;2.63;;
65717;SDS011;52445;52.466;-1.016;2023-05-10T02:24:00;10.02;;;3.15;;
65717;SDS011;52445;52.466;-1.016;2023-05-10T02:26:28;4.90;;;2.45;;
65717;SDS011;52445;52.466;-1.016;2023-05-10T02:28:56;10.93;;;3.63;;
65717;SDS011;52445;52.466;-1.016;2023-05-10T02:31:24;6.90;;;3.33;;
65717;SDS011;52445;52.466;-1.016;2023-05-10T02:33:52;6.63;;;2.67;;
65717;SDS011;52445;52.466;-1.016;2023-05-10T02:36:20;6.18;;;3.45;;
65717;SDS011;52445;52.466;-1.016;2023-05-10T02:38:48;10.57;;;2.70;;
65717;SDS011;52445;52.466;-1.016;2023-05-10T02:41:17;8.25;;;2.63;;
65717;SDS011;52445;52.466;-1.016;2023-05-10T02:43:48;5.50;;;3.55;;
65717;SDS011;52445;52.466;-1.016;2023-05-10T02:46:17;9.13;;;3.65;;
65717;SDS011;52445;52.466;-1.016;2023-05-10T02:48:44;10.68;;;3.20;;
65717;SDS011;52445;52.466;-1.016;2023-05-10T02:51:11;8.75;;;3.10;;
65717;SDS011;52445;52.466;-1.016;2023-05-10T02:53:44;6.40;;;3.25;;
65717;SDS011;52445;52.466;-1.016;2023-05-10T02:56:14;7.00;;;2.80;;
65717;SDS011;52445;52.466;-1.016;2023-05-10T02:58:46;6.10;;;3.25;;
65717;SDS011;52445;52.466;-1.016;2023-05-10T03:01:13;7.63;;;3.08;;
65717;SDS011;52445;52.466;-1.016;2023-05-10T03:03:40;9.70;;;2.53;;
65717;SDS011;52445;52.466;-1.016;2023-05-10T03:06:06;9.68;;;3.45;;
65717;SDS011;52445;52.466;-1.016;2023-05-10T03:08:33;8.32;;;2.60;;
65717;SDS011;52445;52.466;-1.016;2023-05-10T03:11:12;7.53;;;3.08;;
65717;SDS011;52445;52.466;-1.016;2023-05-10T03:13:56;9.48;;;3.47;;
65717;SDS011;52445;52.466;-1.016;2023-05-10T03:16:41;10.18;;;3.28;;
65717;SDS011;52445;52.466;-1.016;2023-05-10T03:19:16;7.05;;;2.83;;
65717;SDS011;52445;52.466;-1.016;2023-05-10T03:21:50;8.40;;;3.03;;
65717;SDS011;52445;52.466;-1.016;2023-05-10T03:26:47;8.55;;;3.25;;
65717;SDS011;52445;52.466;-1.016;2023-05-10T03:29:16;7.68;;;3.47;;
65717;SDS011;52445;52.466;-1.016;2023-05-10T03:31:43;6.50;;;3.60;;
65717;SDS011;52445;52.466;-1.016;2023-05-10T03:34:10;11.23;;;3.80;;
65717;SDS011;52445;52.466;-1.016;2023-05-10T03:36:37;8.73;;;3.05;;
65717;SDS011;52445;52.466;-1.016;2023-05-10T03:39:04;10.70;;;2.00;;
65717;SDS011;52445;52.466;-1.016;2023-05-10T03:41:30;12.82;;;4.10;;
65717;SDS011;52445;52.466;-1.016;2023-05-10T03:43:57;12.65;;;3.13;;
65717;SDS011;52445;52.466;-1.016;2023-05-10T03:46:23;11.20;;;3.83;;
65717;SDS011;52445;52.466;-1.016;2023-05-10T03:48:50;8.43;;;3.70;;
65717;SDS011;52445;52.466;-1.016;2023-05-10T03:51:17;7.72;;;3.33;;
65717;SDS011;52445;52.466;-1.016;2023-05-10T03:53:43;9.63;;;4.25;;
65717;SDS011;52445;52.466;-1.016;2023-05-10T03:56:10;8.88;;;2.25;;
65717;SDS011;52445;52.466;-1.016;2023-05-10T03:58:36;11.73;;;4.25;;
65717;SDS011;52445;52.466;-1.016;2023-05-10T04:01:03;8.65;;;2.80;;
65717;SDS011;52445;52.466;-1.016;2023-05-10T04:03:29;11.30;;;4.63;;
65717;SDS011;52445;52.466;-1.016;2023-05-10T04:06:00;7.68;;;3.70;;
65717;SDS011;52445;52.466;-1.016;2023-05-10T04:08:27;11.10;;;4.25;;
65717;SDS011;52445;52.466;-1.016;2023-05-10T04:11:04;8.93;;;2.60;;
65717;SDS011;52445;52.466;-1.016;2023-05-10T04:13:32;12.68;;;4.25;;
65717;SDS011;52445;52.466;-1.016;2023-05-10T04:15:59;12.98;;;3.92;;
65717;SDS011;52445;52.466;-1.016;2023-05-10T04:18:25;9.25;;;4.28;;
65717;SDS011;52445;52.466;-1.016;2023-05-10T04:20:52;8.57;;;3.38;;
65717;SDS011;52445;52.466;-1.016;2023-05-10T04:23:18;10.68;;;3.88;;
65717;SDS011;52445;52.466;-1.016;2023-05-10T04:25:45;9.27;;;3.90;;
65717;SDS011;52445;52.466;-1.016;2023-05-10T04:28:12;11.40;;;4.57;;
65717;SDS011;52445;52.466;-1.016;2023-05-10T04:30:38;10.13;;;3.88;;
65717;SDS011;52445;52.466;-1.016;2023-05-10T04:33:06;6.75;;;3.38;;
65717;SDS011;52445;52.466;-1.016;2023-05-10T04:35:34;10.80;;;3.78;;
65717;SDS011;52445;52.466;-1.016;2023-05-10T04:38:01;8.43;;;3.38;;
65717;SDS011;52445;52.466;-1.016;2023-05-10T04:40:27;7.85;;;3.88;;
65717;SDS011;52445;52.466;-1.016;2023-05-10T04:42:54;9.25;;;3.88;;
65717;SDS011;52445;52.466;-1.016;2023-05-10T04:45:20;8.88;;;4.25;;
65717;SDS011;52445;52.466;-1.016;2023-05-10T04:47:47;10.60;;;4.03;;
65717;SDS011;52445;52.466;-1.016;2023-05-10T04:50:14;11.85;;;4.45;;
65717;SDS011;52445;52.466;-1.016;2023-05-10T04:52:41;9.38;;;4.40;;
65717;SDS011;52445;52.466;-1.016;2023-05-10T04:55:07;8.27;;;3.70;;
65717;SDS011;52445;52.466;-1.016;2023-05-10T04:57:35;11.70;;;4.72;;
65717;SDS011;52445;52.466;-1.016;2023-05-10T05:00:02;14.00;;;3.97;;
65717;SDS011;52445;52.466;-1.016;2023-05-10T05:02:29;10.80;;;4.25;;
65717;SDS011;52445;52.466;-1.016;2023-05-10T05:04:56;15.32;;;4.38;;
65717;SDS011;52445;52.466;-1.016;2023-05-10T05:07:24;9.38;;;4.82;;
65717;SDS011;52445;52.466;-1.016;2023-05-10T05:09:50;7.82;;;2.75;;
65717;SDS011;52445;52.466;-1.016;2023-05-10T05:12:17;12.52;;;4.25;;
65717;SDS011;52445;52.466;-1.016;2023-05-10T05:14:43;11.23;;;4.53;;
65717;SDS011;52445;52.466;-1.016;2023-05-10T05:17:10;9.85;;;4.88;;
65717;SDS011;52445;52.466;-1.016;2023-05-10T05:19:37;6.72;;;3.70;;
65717;SDS011;52445;52.466;-1.016;2023-05-10T05:22:03;11.27;;;4.75;;
65717;SDS011;52445;52.466;-1.016;2023-05-10T05:24:36;9.52;;;4.13;;
65717;SDS011;52445;52.466;-1.016;2023-05-10T05:27:04;10.05;;;4.85;;
65717;SDS011;52445;52.466;-1.016;2023-05-10T05:29:31;10.02;;;4.53;;
65717;SDS011;52445;52.466;-1.016;2023-05-10T05:31:58;8.68;;;3.75;;
65717;SDS011;52445;52.466;-1.016;2023-05-10T05:34:25;7.25;;;3.58;;
65717;SDS011;52445;52.466;-1.016;2023-05-10T05:36:52;7.20;;;3.67;;
65717;SDS011;52445;52.466;-1.016;2023-05-10T05:39:18;6.10;;;2.25;;
65717;SDS011;52445;52.466;-1.016;2023-05-10T05:41:45;6.05;;;3.50;;
65717;SDS011;52445;52.466;-1.016;2023-05-10T05:44:12;6.75;;;4.25;;
65717;SDS011;52445;52.466;-1.016;2023-05-10T05:46:39;6.13;;;3.92;;
65717;SDS011;52445;52.466;-1.016;2023-05-10T05:49:05;7.57;;;3.55;;
65717;SDS011;52445;52.466;-1.016;2023-05-10T05:51:32;6.97;;;3.97;;
65717;SDS011;52445;52.466;-1.016;2023-05-10T05:53:58;8.50;;;3.83;;
65717;SDS011;52445;52.466;-1.016;2023-05-10T05:56:25;7.18;;;3.92;;
65717;SDS011;52445;52.466;-1.016;2023-05-10T05:58:52;6.80;;;3.42;;
65717;SDS011;52445;52.466;-1.016;2023-05-10T06:01:18;4.75;;;3.20;;
65717;SDS011;52445;52.466;-1.016;2023-05-10T06:03:45;6.75;;;1.65;;
65717;SDS011;52445;52.466;-1.016;2023-05-10T06:06:12;4.82;;;3.38;;
65717;SDS011;52445;52.466;-1.016;2023-05-10T06:08:38;6.43;;;3.95;;
65717;SDS011;52445;52.466;-1.016;2023-05-10T06:11:05;6.38;;;3.15;;
65717;SDS011;52445;52.466;-1.016;2023-05-10T06:13:31;7.38;;;4.25;;
65717;SDS011;52445;52.466;-1.016;2023-05-10T06:15:59;5.68;;;3.50;;
65717;SDS011;52445;52.466;-1.016;2023-05-10T06:18:26;5.30;;;3.20;;
65717;SDS011;52445;52.466;-1.016;2023-05-10T06:20:53;7.07;;;3.90;;
65717;SDS011;52445;52.466;-1.016;2023-05-10T06:23:19;11.00;;;4.20;;
65717;SDS011;52445;52.466;-1.016;2023-05-10T06:25:46;8.48;;;3.75;;
65717;SDS011;52445;52.466;-1.016;2023-05-10T06:28:12;6.18;;;3.13;;
65717;SDS011;52445;52.466;-1.016;2023-05-10T06:30:39;6.55;;;3.75;;
65717;SDS011;52445;52.466;-1.016;2023-05-10T06:33:05;5.40;;;3.22;;
65717;SDS011;52445;52.466;-1.016;2023-05-10T06:35:32;7.18;;;3.97;;
65717;SDS011;52445;52.466;-1.016;2023-05-10T06:37:59;9.05;;;3.88;;
65717;SDS011;52445;52.466;-1.016;2023-05-10T06:40:26;5.95;;;3.35;;
65717;SDS011;52445;52.466;-1.016;2023-05-10T06:42:52;6.65;;;4.20;;
65717;SDS011;52445;52.466;-1.016;2023-05-10T06:45:19;5.43;;;3.53;;
65717;SDS011;52445;52.466;-1.016;2023-05-10T06:47:46;6.60;;;3.80;;
65717;SDS011;52445;52.466;-1.016;2023-05-10T06:50:13;7.22;;;4.18;;
65717;SDS011;52445;52.466;-1.016;2023-05-10T06:52:39;6.65;;;4.28;;
65717;SDS011;52445;52.466;-1.016;2023-05-10T06:55:06;5.55;;;3.63;;
65717;SDS011;52445;52.466;-1.016;2023-05-10T06:57:34;7.35;;;3.50;;
65717;SDS011;52445;52.466;-1.016;2023-05-10T07:00:01;6.72;;;3.90;;
65717;SDS011;52445;52.466;-1.016;2023-05-10T07:02:30;6.50;;;3.83;;
65717;SDS011;52445;52.466;-1.016;2023-05-10T07:04:57;6.88;;;3.67;;
65717;SDS011;52445;52.466;-1.016;2023-05-10T07:07:27;6.03;;;2.70;;
65717;SDS011;52445;52.466;-1.016;2023-05-10T07:09:55;5.80;;;2.47;;
65717;SDS011;52445;52.466;-1.016;2023-05-10T07:12:23;3.53;;;1.67;;
65717;SDS011;52445;52.466;-1.016;2023-05-10T07:14:50;6.13;;;2.78;;
65717;SDS011;52445;52.466;-1.016;2023-05-10T07:17:16;6.18;;;3.03;;
65717;SDS011;52445;52.466;-1.016;2023-05-10T07:19:43;4.63;;;3.60;;
65717;SDS011;52445;52.466;-1.016;2023-05-10T07:22:10;5.03;;;3.05;;
65717;SDS011;52445;52.466;-1.016;2023-05-10T07:24:38;3.85;;;2.00;;
65717;SDS011;52445;52.466;-1.016;2023-05-10T07:27:04;5.70;;;2.85;;
65717;SDS011;52445;52.466;-1.016;2023-05-10T07:29:31;4.47;;;2.22;;
65717;SDS011;52445;52.466;-1.016;2023-05-10T07:32:01;7.03;;;3.30;;
65717;SDS011;52445;52.466;-1.016;2023-05-10T07:34:28;7.25;;;3.35;;
65717;SDS011;52445;52.466;-1.016;2023-05-10T07:36:58;6.63;;;3.15;;
65717;SDS011;52445;52.466;-1.016;2023-05-10T07:39:26;5.57;;;2.78;;
65717;SDS011;52445;52.466;-1.016;2023-05-10T07:41:54;4.82;;;2.67;;
65717;SDS011;52445;52.466;-1.016;2023-05-10T07:44:21;5.38;;;2.55;;
65717;SDS011;52445;52.466;-1.016;2023-05-10T07:46:48;6.28;;;3.65;;
65717;SDS011;52445;52.466;-1.016;2023-05-10T07:49:16;5.60;;;2.92;;
65717;SDS011;52445;52.466;-1.016;2023-05-10T07:51:43;4.97;;;3.65;;
65717;SDS011;52445;52.466;-1.016;2023-05-10T07:54:10;3.63;;;2.70;;
65717;SDS011;52445;52.466;-1.016;2023-05-10T07:56:36;5.03;;;2.90;;
65717;SDS011;52445;52.466;-1.016;2023-05-10T07:59:03;4.00;;;3.45;;
65717;SDS011;52445;52.466;-1.016;2023-05-10T08:01:33;5.82;;;2.75;;
65717;SDS011;52445;52.466;-1.016;2023-05-10T08:04:01;5.45;;;3.35;;
65717;SDS011;52445;52.466;-1.016;2023-05-10T08:06:29;5.18;;;3.05;;
65717;SDS011;52445;52.466;-1.016;2023-05-10T08:08:56;3.70;;;2.40;;
65717;SDS011;52445;52.466;-1.016;2023-05-10T08:11:23;14.13;;;4.05;;
65717;SDS011;52445;52.466;-1.016;2023-05-10T08:13:50;5.72;;;2.70;;
65717;SDS011;52445;52.466;-1.016;2023-05-10T08:16:17;7.53;;;3.10;;
65717;SDS011;52445;52.466;-1.016;2023-05-10T08:18:45;6.50;;;3.10;;
65717;SDS011;52445;52.466;-1.016;2023-05-10T08:21:13;7.82;;;3.58;;
65717;SDS011;52445;52.466;-1.016;2023-05-10T08:23:40;3.05;;;1.45;;
65717;SDS011;52445;52.466;-1.016;2023-05-10T08:26:07;6.55;;;2.88;;
65717;SDS011;52445;52.466;-1.016;2023-05-10T08:28:34;6.47;;;2.72;;
65717;SDS011;52445;52.466;-1.016;2023-05-10T08:31:01;4.85;;;3.25;;
65717;SDS011;52445;52.466;-1.016;2023-05-10T08:33:28;5.75;;;3.03;;
65717;SDS011;52445;52.466;-1.016;2023-05-10T08:35:54;5.57;;;2.72;;
65717;SDS011;52445;52.466;-1.016;2023-05-10T08:38:21;5.38;;;2.05;;
65717;SDS011;52445;52.466;-1.016;2023-05-10T08:40:47;3.65;;;2.58;;
65717;SDS011;52445;52.466;-1.016;2023-05-10T08:43:15;4.32;;;3.10;;
65717;SDS011;52445;52.466;-1.016;2023-05-10T08:45:43;3.92;;;2.88;;
65717;SDS011;52445;52.466;-1.016;2023-05-10T08:48:13;6.88;;;3.15;;
65717;SDS011;52445;52.466;-1.016;2023-05-10T08:50:41;5.28;;;2.92;;
65717;SDS011;52445;52.466;-1.016;2023-05-10T08:53:09;5.80;;;2.97;;
65717;SDS011;52445;52.466;-1.016;2023-05-10T08:55:37;4.72;;;3.28;;
65717;SDS011;52445;52.466;-1.016;2023-05-10T08:58:06;4.60;;;2.67;;
65717;SDS011;52445;52.466;-1.016;2023-05-10T09:00:33;4.18;;;2.50;;
65717;SDS011;52445;52.466;-1.016;2023-05-10T09:03:02;4.35;;;1.10;;
65717;SDS011;52445;52.466;-1.016;2023-05-10T09:05:30;3.50;;;2.58;;
65717;SDS011;52445;52.466;-1.016;2023-05-10T09:07:57;4.60;;;2.80;;
65717;SDS011;52445;52.466;-1.016;2023-05-10T09:10:24;5.47;;;2.55;;
65717;SDS011;52445;52.466;-1.016;2023-05-10T09:12:53;6.00;;;2.75;;
65717;SDS011;52445;52.466;-1.016;2023-05-10T09:15:24;5.38;;;2.70;;
65717;SDS011;52445;52.466;-1.016;2023-05-10T09:17:51;4.93;;;3.05;;
65717;SDS011;52445;52.466;-1.016;2023-05-10T09:20:18;3.22;;;2.92;;
65717;SDS011;52445;52.466;-1.016;2023-05-10T09:22:45;5.38;;;2.83;;
65717;SDS011;52445;52.466;-1.016;2023-05-10T09:25:12;4.07;;;2.15;;
65717;SDS011;52445;52.466;-1.016;2023-05-10T09:30:15;5.50;;;2.95;;
65717;SDS011;52445;52.466;-1.016;2023-05-10T09:32:45;6.38;;;2.65;;
65717;SDS011;52445;52.466;-1.016;2023-05-10T09:35:14;5.40;;;3.60;;
65717;SDS011;52445;52.466;-1.016;2023-05-10T09:37:45;5.88;;;2.65;;
65717;SDS011;52445;52.466;-1.016;2023-05-10T09:40:15;3.72;;;2.35;;
65717;SDS011;52445;52.466;-1.016;2023-05-10T09:45:28;2.90;;;1.90;;
65717;SDS011;52445;52.466;-1.016;2023-05-10T09:50:25;4.15;;;1.10;;
65717;SDS011;52445;52.466;-1.016;2023-05-10T09:52:55;4.20;;;1.67;;
65717;SDS011;52445;52.466;-1.016;2023-05-10T09:55:26;4.18;;;1.58;;
65717;SDS011;52445;52.466;-1.016;2023-05-10T09:58:06;6.57;;;1.33;;
65717;SDS011;52445;52.466;-1.016;2023-05-10T10:00:37;4.78;;;1.23;;
65717;SDS011;52445;52.466;-1.016;2023-05-10T10:03:06;5.60;;;2.92;;
65717;SDS011;52445;52.466;-1.016;2023-05-10T10:05:39;4.78;;;1.30;;
65717;SDS011;52445;52.466;-1.016;2023-05-10T10:10:34;3.35;;;1.00;;
65717;SDS011;52445;52.466;-1.016;2023-05-10T10:13:01;3.47;;;1.30;;
65717;SDS011;52445;52.466;-1.016;2023-05-10T10:15:28;6.53;;;1.67;;
65717;SDS011;52445;52.466;-1.016;2023-05-10T10:17:55;6.63;;;2.70;;
65717;SDS011;52445;52.466;-1.016;2023-05-10T10:20:22;4.10;;;1.52;;
65717;SDS011;52445;52.466;-1.016;2023-05-10T10:22:51;3.05;;;1.15;;
65717;SDS011;52445;52.466;-1.016;2023-05-10T10:25:19;3.90;;;2.17;;
65717;SDS011;52445;52.466;-1.016;2023-05-10T10:35:55;6.20;;;2.72;;
65717;SDS011;52445;52.466;-1.016;2023-05-10T10:38:25;5.07;;;3.25;;
65717;SDS011;52445;52.466;-1.016;2023-05-10T10:49:38;2.50;;;1.02;;
65717;SDS011;52445;52.466;-1.016;2023-05-10T10:52:26;4.82;;;1.85;;
65717;SDS011;52445;52.466;-1.016;2023-05-10T11:00:18;3.28;;;1.50;;
65717;SDS011;52445;52.466;-1.016;2023-05-10T11:05:34;3.03;;;1.13;;
65717;SDS011;52445;52.466;-1.016;2023-05-10T11:08:07;2.80;;;1.35;;
65717;SDS011;52445;52.466;-1.016;2023-05-10T11:10:36;2.47;;;1.40;;
65717;SDS011;52445;52.466;-1.016;2023-05-10T11:13:05;4.47;;;1.42;;
65717;SDS011;52445;52.466;-1.016;2023-05-10T11:15:38;3.90;;;2.05;;
65717;SDS011;52445;52.466;-1.016;2023-05-10T11:20:58;1.90;;;1.30;;
65717;SDS011;52445;52.466;-1.016;2023-05-10T11:23:30;2.65;;;1.25;;
65717;SDS011;52445;52.466;-1.016;2023-05-10T11:25:59;3.75;;;1.42;;
65717;SDS011;52445;52.466;-1.016;2023-05-10T11:28:27;2.97;;;1.30;;
65717;SDS011;52445;52.466;-1.016;2023-05-10T11:30:54;2.70;;;1.48;;
65717;SDS011;52445;52.466;-1.016;2023-05-10T11:33:22;2.90;;;1.15;;
65717;SDS011;52445;52.466;-1.016;2023-05-10T11:35:48;2.53;;;1.33;;
65717;SDS011;52445;52.466;-1.016;2023-05-10T11:38:15;5.55;;;1.73;;
65717;SDS011;52445;52.466;-1.016;2023-05-10T11:40:42;6.80;;;1.15;;
65717;SDS011;52445;52.466;-1.016;2023-05-10T11:43:10;2.75;;;1.35;;
65717;SDS011;52445;52.466;-1.016;2023-05-10T11:45:37;2.38;;;1.05;;
65717;SDS011;52445;52.466;-1.016;2023-05-10T11:48:06;1.50;;;0.70;;
65717;SDS011;52445;52.466;-1.016;2023-05-10T11:50:34;4.28;;;3.97;;
65717;SDS011;52445;52.466;-1.016;2023-05-10T11:53:00;2.40;;;0.80;;
65717;SDS011;52445;52.466;-1.016;2023-05-10T11:55:27;3.42;;;0.80;;
65717;SDS011;52445;52.466;-1.016;2023-05-10T11:57:59;1.70;;;1.00;;
65717;SDS011;52445;52.466;-1.016;2023-05-10T12:00:27;2.70;;;0.80;;
65717;SDS011;52445;52.466;-1.016;2023-05-10T12:02:54;5.32;;;2.38;;
65717;SDS011;52445;52.466;-1.016;2023-05-10T12:05:21;3.67;;;1.30;;
65717;SDS011;52445;52.466;-1.016;2023-05-10T12:07:48;4.22;;;2.03;;
65717;SDS011;52445;52.466;-1.016;2023-05-10T12:10:14;2.58;;;1.13;;
65717;SDS011;52445;52.466;-1.016;2023-05-10T12:12:44;3.63;;;2.28;;
65717;SDS011;52445;52.466;-1.016;2023-05-10T12:17:50;3.05;;;1.30;;
65717;SDS011;52445;52.466;-1.016;2023-05-10T12:20:18;2.63;;;0.82;;
65717;SDS011;52445;52.466;-1.016;2023-05-10T12:22:50;1.58;;;1.30;;
65717;SDS011;52445;52.466;-1.016;2023-05-10T12:25:19;3.15;;;1.23;;
65717;SDS011;52445;52.466;-1.016;2023-05-10T12:27:51;2.50;;;1.00;;
65717;SDS011;52445;52.466;-1.016;2023-05-10T12:30:20;2.50;;;0.98;;
65717;SDS011;52445;52.466;-1.016;2023-05-10T12:32:49;3.83;;;1.52;;
65717;SDS011;52445;52.466;-1.016;2023-05-10T12:35:16;2.28;;;1.25;;
65717;SDS011;52445;52.466;-1.016;2023-05-10T12:37:46;5.95;;;1.38;;
65717;SDS011;52445;52.466;-1.016;2023-05-10T12:40:13;6.35;;;1.08;;
65717;SDS011;52445;52.466;-1.016;2023-05-10T12:42:40;4.72;;;0.95;;
65717;SDS011;52445;52.466;-1.016;2023-05-10T12:45:08;1.70;;;0.93;;
65717;SDS011;52445;52.466;-1.016;2023-05-10T12:47:35;1.90;;;0.52;;
65717;SDS011;52445;52.466;-1.016;2023-05-10T12:50:02;2.92;;;0.80;;
65717;SDS011;52445;52.466;-1.016;2023-05-10T12:52:29;1.23;;;0.75;;
65717;SDS011;52445;52.466;-1.016;2023-05-10T12:54:58;0.80;;;0.52;;
65717;SDS011;52445;52.466;-1.016;2023-05-10T12:57:26;1.77;;;0.95;;
65717;SDS011;52445;52.466;-1.016;2023-05-10T12:59:53;1.83;;;0.80;;
65717;SDS011;52445;52.466;-1.016;2023-05-10T13:02:21;2.03;;;0.73;;
65717;SDS011;52445;52.466;-1.016;2023-05-10T13:04:49;2.40;;;1.08;;
65717;SDS011;52445;52.466;-1.016;2023-05-10T13:07:16;2.75;;;1.48;;
65717;SDS011;52445;52.466;-1.016;2023-05-10T13:09:43;1.42;;;0.70;;
65717;SDS011;52445;52.466;-1.016;2023-05-10T13:12:10;2.00;;;1.15;;
65717;SDS011;52445;52.466;-1.016;2023-05-10T13:14:36;2.53;;;0.98;;
65717;SDS011;52445;52.466;-1.016;2023-05-10T13:17:03;2.13;;;0.93;;
65717;SDS011;52445;52.466;-1.016;2023-05-10T13:19:30;4.95;;;1.17;;
65717;SDS011;52445;52.466;-1.016;2023-05-10T13:21:56;2.15;;;0.90;;
65717;SDS011;52445;52.466;-1.016;2023-05-10T13:24:24;2.03;;;0.98;;
65717;SDS011;52445;52.466;-1.016;2023-05-10T13:26:51;3.70;;;0.57;;
65717;SDS011;52445;52.466;-1.016;2023-05-10T13:29:17;1.45;;;0.57;;
65717;SDS011;52445;52.466;-1.016;2023-05-10T13:31:44;5.50;;;0.98;;
65717;SDS011;52445;52.466;-1.016;2023-05-10T13:34:11;1.75;;;0.60;;
65717;SDS011;52445;52.466;-1.016;2023-05-10T13:36:37;2.45;;;0.80;;
65717;SDS011;52445;52.466;-1.016;2023-05-10T13:39:04;2.00;;;1.05;;
65717;SDS011;52445;52.466;-1.016;2023-05-10T13:41:31;6.53;;;0.65;;
65717;SDS011;52445;52.466;-1.016;2023-05-10T13:43:58;5.95;;;0.80;;
65717;SDS011;52445;52.466;-1.016;2023-05-10T13:46:24;3.00;;;1.02;;
65717;SDS011;52445;52.466;-1.016;2023-05-10T13:48:51;1.70;;;0.57;;
65717;SDS011;52445;52.466;-1.016;2023-05-10T13:51:18;1.90;;;0.85;;
65717;SDS011;52445;52.466;-1.016;2023-05-10T13:53:44;2.65;;;0.70;;
65717;SDS011;52445;52.466;-1.016;2023-05-10T13:56:13;3.70;;;0.57;;
65717;SDS011;52445;52.466;-1.016;2023-05-10T13:58:40;2.60;;;0.80;;
65717;SDS011;52445;52.466;-1.016;2023-05-10T14:01:07;1.63;;;0.98;;
65717;SDS011;52445;52.466;-1.016;2023-05-10T14:03:34;1.38;;;1.20;;
65717;SDS011;52445;52.466;-1.016;2023-05-10T14:06:01;1.85;;;0.52;;
65717;SDS011;52445;52.466;-1.016;2023-05-10T14:08:29;2.90;;;1.10;;
65717;SDS011;52445;52.466;-1.016;2023-05-10T14:10:58;1.17;;;0.63;;
65717;SDS011;52445;52.466;-1.016;2023-05-10T14:13:25;1.33;;;0.50;;
65717;SDS011;52445;52.466;-1.016;2023-05-10T14:15:52;1.00;;;0.52;;
65717;SDS011;52445;52.466;-1.016;2023-05-10T14:18:20;0.93;;;0.57;;
65717;SDS011;52445;52.466;-1.016;2023-05-10T14:20:47;1.02;;;0.55;;
65717;SDS011;52445;52.466;-1.016;2023-05-10T14:23:15;1.02;;;0.73;;
65717;SDS011;52445;52.466;-1.016;2023-05-10T14:25:42;0.50;;;0.50;;
65717;SDS011;52445;52.466;-1.016;2023-05-10T14:28:09;1.42;;;0.50;;
65717;SDS011;52445;52.466;-1.016;2023-05-10T14:30:36;1.05;;;0.95;;
65717;SDS011;52445;52.466;-1.016;2023-05-10T14:33:02;1.98;;;1.70;;
65717;SDS011;52445;52.466;-1.016;2023-05-10T14:35:29;2.38;;;0.85;;
65717;SDS011;52445;52.466;-1.016;2023-05-10T14:37:58;2.17;;;0.70;;
65717;SDS011;52445;52.466;-1.016;2023-05-10T14:40:25;1.60;;;0.65;;
65717;SDS011;52445;52.466;-1.016;2023-05-10T14:42:52;2.97;;;0.80;;
65717;SDS011;52445;52.466;-1.016;2023-05-10T14:45:19;1.40;;;0.88;;
65717;SDS011;52445;52.466;-1.016;2023-05-10T14:47:47;1.95;;;0.93;;
65717;SDS011;52445;52.466;-1.016;2023-05-10T14:50:13;1.85;;;0.60;;
65717;SDS011;52445;52.466;-1.016;2023-05-10T14:53:00;1.05;;;0.75;;
65717;SDS011;52445;52.466;-1.016;2023-05-10T14:55:27;0.90;;;0.85;;
65717;SDS011;52445;52.466;-1.016;2023-05-10T14:57:53;1.15;;;0.75;;
65717;SDS011;52445;52.466;-1.016;2023-05-10T15:00:20;2.33;;;0.60;;
65717;SDS011;52445;52.466;-1.016;2023-05-10T15:02:47;2.58;;;0.55;;
65717;SDS011;52445;52.466;-1.016;2023-05-10T15:05:15;1.60;;;0.50;;
65717;SDS011;52445;52.466;-1.016;2023-05-10T15:07:42;0.50;;;0.43;;
65717;SDS011;52445;52.466;-1.016;2023-05-10T15:10:10;0.98;;;0.60;;
65717;SDS011;52445;52.466;-1.016;2023-05-10T15:12:37;1.20;;;0.68;;
65717;SDS011;52445;52.466;-1.016;2023-05-10T15:15:04;1.00;;;0.90;;
65717;SDS011;52445;52.466;-1.016;2023-05-10T15:17:32;2.05;;;0.60;;
65717;SDS011;52445;52.466;-1.016;2023-05-10T15:19:59;0.82;;;0.45;;
65717;SDS011;52445;52.466;-1.016;2023-05-10T15:22:28;2.33;;;0.70;;
65717;SDS011;52445;52.466;-1.016;2023-05-10T15:24:57;1.23;;;0.70;;
65717;SDS011;52445;52.466;-1.016;2023-05-10T15:27:25;1.45;;;0.43;;
65717;SDS011;52445;52.466;-1.016;2023-05-10T15:29:52;1.55;;;0.63;;
65717;SDS011;52445;52.466;-1.016;2023-05-10T15:32:19;0.60;;;0.50;;